createdAt,value
2022-07-31T00:02:08.757Z,3.05
2022-07-31T00:04:36.175Z,3.05
2022-07-31T00:07:03.966Z,2.70
2022-07-31T00:09:52.388Z,3.13
2022-07-31T00:12:18.955Z,4.20
2022-07-31T00:14:46.547Z,3.60
2022-07-31T00:17:14.061Z,3.30
2022-07-31T00:19:41.875Z,2.90
2022-07-31T00:22:11.092Z,3.58
2022-07-31T00:24:38.396Z,5.25
2022-07-31T00:27:06.109Z,8.05
2022-07-31T00:29:33.729Z,3.78
2022-07-31T00:32:01.081Z,2.47
2022-07-31T00:34:28.597Z,3.08
2022-07-31T00:36:56.134Z,2.67
2022-07-31T00:39:24.246Z,2.67
2022-07-31T00:41:51.596Z,2.42
2022-07-31T00:44:19.004Z,2.72
2022-07-31T00:46:46.416Z,2.97
2022-07-31T00:49:13.904Z,2.22
2022-07-31T00:51:41.481Z,2.65
2022-07-31T00:54:09.365Z,2.70
2022-07-31T00:56:37.005Z,2.17
2022-07-31T00:59:04.608Z,2.20
2022-07-31T01:01:32.463Z,2.55
2022-07-31T01:04:00.089Z,2.72
2022-07-31T01:06:27.450Z,3.25
2022-07-31T01:08:54.844Z,2.67
2022-07-31T01:11:29.387Z,3.15
2022-07-31T01:13:59.266Z,2.70
2022-07-31T01:16:30.449Z,2.80
2022-07-31T01:18:59.421Z,2.75
2022-07-31T01:21:36.225Z,3.17
2022-07-31T01:24:06.641Z,2.58
2022-07-31T01:26:57.801Z,3.53
2022-07-31T01:29:30.101Z,4.00
2022-07-31T01:32:03.554Z,2.97
2022-07-31T01:34:49.527Z,3.85
2022-07-31T01:37:20.800Z,3.33
2022-07-31T01:39:51.538Z,7.10
2022-07-31T01:42:20.503Z,14.57
2022-07-31T01:44:50.549Z,5.22
2022-07-31T01:47:20.423Z,3.38
2022-07-31T01:49:49.508Z,2.97
2022-07-31T01:52:17.553Z,3.05
2022-07-31T01:54:45.361Z,3.33
2022-07-31T01:57:14.354Z,3.85
2022-07-31T01:59:46.606Z,2.80
2022-07-31T02:02:14.363Z,3.42
2022-07-31T02:04:41.816Z,3.85
2022-07-31T02:07:09.689Z,3.25
2022-07-31T02:09:38.210Z,3.47
2022-07-31T02:12:31.920Z,3.70
2022-07-31T02:15:01.324Z,3.42
2022-07-31T02:17:29.032Z,3.40
2022-07-31T02:20:00.187Z,3.55
2022-07-31T02:22:29.730Z,4.05
2022-07-31T02:24:57.507Z,3.80
2022-07-31T02:27:53.922Z,3.55
2022-07-31T02:30:13.404Z,3.40
2022-07-31T02:32:41.936Z,3.30
2022-07-31T02:35:09.703Z,3.22
2022-07-31T02:37:38.171Z,3.65
2022-07-31T02:40:05.902Z,3.60
2022-07-31T02:42:33.441Z,3.67
2022-07-31T02:45:01.847Z,4.13
2022-07-31T02:47:29.813Z,2.97
2022-07-31T02:49:58.138Z,4.45
2022-07-31T02:52:26.514Z,3.70
2022-07-31T02:54:54.293Z,4.00
2022-07-31T02:57:21.598Z,3.58
2022-07-31T02:59:48.908Z,3.88
2022-07-31T03:02:16.279Z,3.13
2022-07-31T03:04:44.123Z,4.10
2022-07-31T03:07:11.949Z,3.30
2022-07-31T03:09:39.315Z,3.08
2022-07-31T03:12:07.263Z,3.72
2022-07-31T03:14:36.086Z,3.35
2022-07-31T03:17:04.535Z,3.40
2022-07-31T03:19:32.727Z,3.33
2022-07-31T03:22:00.701Z,3.70
2022-07-31T03:24:28.396Z,3.30
2022-07-31T03:26:55.860Z,3.42
2022-07-31T03:29:43.327Z,3.72
2022-07-31T03:32:11.175Z,3.40
2022-07-31T03:34:38.444Z,3.55
2022-07-31T03:37:05.762Z,3.95
2022-07-31T03:39:33.133Z,3.95
2022-07-31T03:42:02.319Z,4.05
2022-07-31T03:44:30.175Z,3.95
2022-07-31T03:46:57.535Z,3.42
2022-07-31T03:49:25.148Z,3.70
2022-07-31T03:51:52.522Z,30.70
2022-07-31T03:54:19.949Z,3.80
2022-07-31T03:56:49.526Z,3.60
2022-07-31T03:59:17.216Z,3.53
2022-07-31T04:01:57.568Z,3.97
2022-07-31T04:04:26.212Z,3.47
2022-07-31T04:06:53.565Z,3.63
2022-07-31T04:09:20.872Z,3.75
2022-07-31T04:11:48.278Z,3.80
2022-07-31T04:14:15.604Z,4.10
2022-07-31T04:16:42.924Z,3.70
2022-07-31T04:19:10.855Z,3.38
2022-07-31T04:21:38.217Z,4.05
2022-07-31T04:24:05.692Z,3.80
2022-07-31T04:26:33.020Z,4.18
2022-07-31T04:29:00.300Z,4.07
2022-07-31T04:31:27.642Z,4.57
2022-07-31T04:33:57.035Z,5.00
2022-07-31T04:36:30.511Z,4.57
2022-07-31T04:38:58.813Z,5.07
2022-07-31T04:41:26.228Z,4.50
2022-07-31T04:43:53.595Z,4.93
2022-07-31T04:46:21.319Z,4.28
2022-07-31T04:48:49.235Z,4.50
2022-07-31T04:51:18.060Z,4.47
2022-07-31T04:53:46.170Z,4.78
2022-07-31T04:56:32.868Z,6.03
2022-07-31T04:59:01.172Z,4.40
2022-07-31T05:01:28.544Z,4.95
2022-07-31T05:03:55.914Z,4.93
2022-07-31T05:06:23.271Z,5.43
2022-07-31T05:08:50.559Z,5.05
2022-07-31T05:11:23.855Z,4.57
2022-07-31T05:13:51.655Z,5.30
2022-07-31T05:16:19.645Z,5.40
2022-07-31T05:18:47.267Z,6.32
2022-07-31T05:21:15.271Z,7.03
2022-07-31T05:23:43.408Z,6.30
2022-07-31T05:26:11.030Z,6.85
2022-07-31T05:28:39.148Z,7.05
2022-07-31T05:31:07.774Z,7.47
2022-07-31T05:33:35.239Z,6.50
2022-07-31T05:36:03.216Z,8.13
2022-07-31T05:38:30.821Z,7.13
2022-07-31T05:40:58.147Z,7.45
2022-07-31T05:43:25.538Z,7.82
2022-07-31T05:45:52.853Z,7.63
2022-07-31T05:48:20.170Z,9.18
2022-07-31T05:50:48.397Z,7.93
2022-07-31T05:53:16.402Z,8.40
2022-07-31T05:55:44.236Z,7.22
2022-07-31T05:58:16.423Z,7.78
2022-07-31T06:00:44.600Z,7.00
2022-07-31T06:03:12.612Z,7.00
2022-07-31T06:05:40.666Z,6.80
2022-07-31T06:08:09.650Z,7.32
2022-07-31T06:10:37.612Z,7.32
2022-07-31T06:13:07.766Z,8.05
2022-07-31T06:15:36.756Z,8.30
2022-07-31T06:18:05.075Z,6.97
2022-07-31T06:20:32.391Z,6.82
2022-07-31T06:22:59.874Z,6.90
2022-07-31T06:25:31.918Z,6.20
2022-07-31T06:28:04.196Z,7.07
2022-07-31T06:30:37.625Z,6.55
2022-07-31T06:33:08.206Z,6.18
2022-07-31T06:35:35.920Z,5.70
2022-07-31T06:38:03.229Z,5.10
2022-07-31T06:40:30.839Z,5.47
2022-07-31T06:42:58.233Z,5.22
2022-07-31T06:45:49.549Z,5.07
2022-07-31T06:48:16.041Z,4.60
2022-07-31T06:50:43.334Z,4.32
2022-07-31T06:53:10.783Z,5.30
2022-07-31T06:55:38.153Z,4.47
2022-07-31T06:58:11.785Z,4.40
2022-07-31T07:00:39.076Z,4.10
2022-07-31T07:03:06.365Z,3.83
2022-07-31T07:05:33.683Z,3.90
2022-07-31T07:08:01.146Z,3.80
2022-07-31T07:10:28.828Z,4.35
2022-07-31T07:12:56.172Z,4.00
2022-07-31T07:15:23.433Z,3.40
2022-07-31T07:17:50.688Z,3.53
2022-07-31T07:20:18.006Z,2.88
2022-07-31T07:22:45.262Z,3.35
2022-07-31T07:25:13.554Z,3.22
2022-07-31T07:27:40.835Z,3.67
2022-07-31T07:30:08.389Z,3.15
2022-07-31T07:32:35.682Z,3.58
2022-07-31T07:35:04.204Z,3.35
2022-07-31T07:37:31.558Z,3.10
2022-07-31T07:40:07.007Z,3.85
2022-07-31T07:42:34.405Z,3.67
2022-07-31T07:45:06.553Z,4.38
2022-07-31T07:48:02.324Z,3.50
2022-07-31T07:50:26.971Z,3.40
2022-07-31T07:52:56.516Z,3.17
2022-07-31T07:55:23.837Z,2.97
2022-07-31T07:57:51.395Z,3.30
2022-07-31T08:00:18.737Z,3.15
2022-07-31T08:03:47.468Z,2.67
2022-07-31T08:05:34.252Z,2.85
2022-07-31T08:08:01.976Z,3.17
2022-07-31T08:10:29.264Z,3.15
2022-07-31T08:12:57.695Z,3.08
2022-07-31T08:15:25.953Z,3.85
2022-07-31T08:17:53.451Z,3.40
2022-07-31T08:20:21.331Z,3.85
2022-07-31T08:22:48.613Z,4.07
2022-07-31T08:25:15.920Z,3.38
2022-07-31T08:27:43.170Z,4.25
2022-07-31T08:30:11.024Z,3.38
2022-07-31T08:32:38.656Z,4.35
2022-07-31T08:35:06.652Z,4.05
2022-07-31T08:37:52.228Z,3.90
2022-07-31T08:40:21.705Z,3.10
2022-07-31T08:42:49.028Z,3.30
2022-07-31T08:45:16.530Z,3.53
2022-07-31T08:47:47.888Z,3.35
2022-07-31T08:50:15.699Z,3.67
2022-07-31T08:52:45.252Z,3.80
2022-07-31T08:55:24.798Z,4.25
2022-07-31T08:58:03.168Z,2.90
2022-07-31T09:00:30.486Z,2.88
2022-07-31T09:02:57.823Z,2.63
2022-07-31T09:05:25.295Z,8.50
2022-07-31T09:07:53.198Z,4.40
2022-07-31T09:10:21.655Z,3.03
2022-07-31T09:12:48.954Z,3.25
2022-07-31T09:15:24.441Z,2.53
2022-07-31T09:17:54.105Z,3.40
2022-07-31T09:20:23.157Z,2.65
2022-07-31T09:22:54.252Z,2.60
2022-07-31T09:25:21.584Z,4.00
2022-07-31T09:27:51.329Z,3.50
2022-07-31T09:30:18.637Z,2.75
2022-07-31T09:32:47.349Z,3.00
2022-07-31T09:35:15.571Z,2.47
2022-07-31T09:37:47.319Z,3.35
2022-07-31T09:40:14.657Z,3.38
2022-07-31T09:42:55.225Z,3.20
2022-07-31T09:45:23.902Z,2.72
2022-07-31T09:48:15.124Z,3.40
2022-07-31T09:50:59.949Z,2.92
2022-07-31T09:53:27.548Z,2.72
2022-07-31T09:55:56.001Z,2.72
2022-07-31T09:58:23.899Z,3.00
2022-07-31T10:00:52.808Z,2.45
2022-07-31T10:03:20.831Z,2.63
2022-07-31T10:05:48.398Z,2.40
2022-07-31T10:08:17.344Z,2.67
2022-07-31T10:10:45.360Z,3.10
2022-07-31T10:13:15.540Z,2.10
2022-07-31T10:15:45.955Z,3.40
2022-07-31T10:18:13.754Z,3.65
2022-07-31T10:20:43.003Z,4.10
2022-07-31T10:23:11.602Z,2.78
2022-07-31T10:25:41.737Z,2.50
2022-07-31T10:28:21.828Z,2.67
2022-07-31T10:30:49.236Z,2.42
2022-07-31T10:33:42.034Z,8.02
2022-07-31T10:36:18.978Z,6.40
2022-07-31T10:38:46.331Z,3.25
2022-07-31T10:41:18.987Z,2.63
2022-07-31T10:43:46.714Z,2.15
2022-07-31T10:46:14.067Z,4.30
2022-07-31T10:48:51.429Z,2.70
2022-07-31T10:51:19.010Z,2.15
2022-07-31T10:53:55.970Z,3.20
2022-07-31T10:56:23.486Z,2.97
2022-07-31T10:58:52.071Z,2.67
2022-07-31T11:01:19.609Z,3.58
2022-07-31T11:03:48.456Z,2.30
2022-07-31T11:06:16.897Z,2.65
2022-07-31T11:08:45.140Z,2.90
2022-07-31T11:11:13.076Z,2.80
2022-07-31T11:13:50.666Z,2.30
2022-07-31T11:16:19.043Z,2.60
2022-07-31T11:18:57.278Z,2.97
2022-07-31T11:21:39.904Z,3.00
2022-07-31T11:24:14.850Z,3.05
2022-07-31T11:26:51.584Z,2.70
2022-07-31T11:29:59.451Z,2.55
2022-07-31T11:32:22.966Z,2.53
2022-07-31T11:34:54.324Z,3.30
2022-07-31T11:37:23.906Z,2.50
2022-07-31T11:39:52.947Z,2.63
2022-07-31T11:42:24.319Z,2.78
2022-07-31T11:45:02.340Z,2.70
2022-07-31T11:48:11.385Z,2.55
2022-07-31T11:50:31.352Z,2.58
2022-07-31T11:53:07.102Z,2.70
2022-07-31T11:55:44.421Z,3.50
2022-07-31T11:58:11.901Z,2.22
2022-07-31T12:00:39.264Z,2.30
2022-07-31T12:03:06.681Z,2.88
2022-07-31T12:05:43.936Z,2.42
2022-07-31T12:08:11.800Z,2.50
2022-07-31T12:10:40.140Z,2.60
2022-07-31T12:13:15.435Z,2.90
2022-07-31T12:15:54.364Z,2.85
2022-07-31T12:18:21.782Z,2.33
2022-07-31T12:21:15.490Z,2.50
2022-07-31T12:23:44.224Z,2.25
2022-07-31T12:26:12.725Z,2.33
2022-07-31T12:28:41.374Z,2.20
2022-07-31T12:31:09.161Z,2.25
2022-07-31T12:33:43.310Z,2.10
2022-07-31T12:36:14.612Z,2.63
2022-07-31T12:38:45.448Z,2.30
2022-07-31T12:41:15.957Z,2.72
2022-07-31T12:43:51.761Z,3.25
2022-07-31T12:46:40.159Z,3.00
2022-07-31T12:49:08.598Z,2.60
2022-07-31T12:51:44.856Z,3.20
2022-07-31T12:54:14.435Z,3.25
2022-07-31T12:56:42.208Z,3.60
2022-07-31T12:59:10.339Z,2.88
2022-07-31T13:01:38.181Z,3.03
2022-07-31T13:04:07.942Z,3.35
2022-07-31T13:06:48.562Z,2.90
2022-07-31T13:09:16.012Z,2.80
2022-07-31T13:11:46.809Z,3.20
2022-07-31T13:14:16.797Z,3.30
2022-07-31T13:16:44.532Z,2.88
2022-07-31T13:19:11.860Z,3.63
2022-07-31T13:21:48.888Z,2.90
2022-07-31T13:24:20.854Z,2.92
2022-07-31T13:26:48.986Z,2.95
2022-07-31T13:29:16.582Z,3.28
2022-07-31T13:31:44.021Z,2.83
2022-07-31T13:34:11.358Z,2.47
2022-07-31T13:36:39.589Z,2.60
2022-07-31T13:39:08.271Z,2.38
2022-07-31T13:41:35.951Z,2.58
2022-07-31T13:44:05.494Z,2.53
2022-07-31T13:46:32.797Z,2.67
2022-07-31T13:49:02.323Z,2.42
2022-07-31T13:51:30.203Z,2.83
2022-07-31T13:53:57.713Z,2.63
2022-07-31T13:56:39.089Z,2.50
2022-07-31T13:59:11.730Z,2.97
2022-07-31T14:02:04.361Z,4.18
2022-07-31T14:04:30.312Z,2.63
2022-07-31T14:07:00.871Z,3.58
2022-07-31T14:09:28.933Z,2.60
2022-07-31T14:11:56.390Z,3.05
2022-07-31T14:14:24.033Z,2.63
2022-07-31T14:16:51.652Z,7.47
2022-07-31T14:19:19.150Z,3.10
2022-07-31T14:21:56.327Z,2.72
2022-07-31T14:24:36.374Z,2.80
2022-07-31T14:27:03.684Z,2.60
2022-07-31T14:29:31.171Z,2.42
2022-07-31T14:32:03.618Z,2.40
2022-07-31T14:34:35.902Z,2.92
2022-07-31T14:37:03.868Z,2.50
2022-07-31T14:39:31.492Z,2.50
2022-07-31T14:41:59.019Z,2.30
2022-07-31T14:44:28.972Z,2.40
2022-07-31T14:46:56.560Z,2.88
2022-07-31T14:49:24.006Z,2.60
2022-07-31T14:51:51.431Z,2.60
2022-07-31T14:54:18.737Z,2.20
2022-07-31T14:57:11.472Z,2.20
2022-07-31T14:59:33.402Z,2.70
2022-07-31T15:02:01.114Z,2.25
2022-07-31T15:04:28.825Z,2.15
2022-07-31T15:07:13.013Z,2.33
2022-07-31T15:09:43.605Z,2.40
2022-07-31T15:12:13.399Z,2.95
2022-07-31T15:14:40.768Z,3.20
2022-07-31T15:17:08.261Z,4.40
2022-07-31T15:19:35.866Z,4.53
2022-07-31T15:22:10.002Z,4.90
2022-07-31T15:24:49.641Z,4.38
2022-07-31T15:27:24.928Z,4.18
2022-07-31T15:30:04.906Z,4.70
2022-07-31T15:32:39.304Z,4.53
2022-07-31T15:35:08.109Z,4.40
2022-07-31T15:37:36.242Z,4.75
2022-07-31T15:40:05.642Z,4.55
2022-07-31T15:42:33.373Z,3.88
2022-07-31T15:45:00.725Z,3.55
2022-07-31T15:47:27.661Z,4.50
2022-07-31T15:49:54.689Z,4.07
2022-07-31T15:52:21.643Z,4.10
2022-07-31T15:54:51.499Z,5.35
2022-07-31T15:57:20.979Z,3.95
2022-07-31T15:59:49.082Z,3.22
2022-07-31T16:02:16.153Z,3.08
2022-07-31T16:04:52.910Z,2.83
2022-07-31T16:08:30.039Z,2.88
2022-07-31T16:10:15.769Z,2.60
2022-07-31T16:12:47.742Z,2.80
2022-07-31T16:15:16.437Z,3.05
2022-07-31T16:17:44.243Z,2.67
2022-07-31T16:20:13.207Z,3.05
2022-07-31T16:22:56.082Z,3.47
2022-07-31T16:25:24.705Z,3.17
2022-07-31T16:27:51.789Z,3.45
2022-07-31T16:30:18.873Z,3.53
2022-07-31T16:32:45.938Z,3.35
2022-07-31T16:35:13.383Z,3.08
2022-07-31T16:37:51.039Z,3.38
2022-07-31T16:40:28.854Z,2.97
2022-07-31T16:43:47.713Z,3.30
2022-07-31T16:45:50.916Z,3.22
2022-07-31T16:48:17.997Z,2.88
2022-07-31T16:50:45.014Z,3.25
2022-07-31T16:54:11.076Z,4.80
2022-07-31T16:56:02.139Z,3.17
2022-07-31T16:58:30.253Z,3.38
2022-07-31T17:00:57.818Z,3.97
2022-07-31T17:03:58.763Z,6.25
2022-07-31T17:06:12.652Z,4.53
2022-07-31T17:08:40.029Z,5.10
2022-07-31T17:11:07.349Z,4.75
2022-07-31T17:13:34.610Z,3.92
2022-07-31T17:16:01.978Z,3.67
2022-07-31T17:18:29.456Z,5.00
2022-07-31T17:20:57.093Z,6.05
2022-07-31T17:23:43.691Z,4.65
2022-07-31T17:26:20.880Z,4.28
2022-07-31T17:28:49.239Z,4.38
2022-07-31T17:31:16.655Z,4.80
2022-07-31T17:33:59.455Z,3.95
2022-07-31T17:36:29.343Z,4.22
2022-07-31T17:38:57.360Z,4.00
2022-07-31T17:41:26.157Z,3.53
2022-07-31T17:43:54.660Z,4.38
2022-07-31T17:46:34.741Z,3.78
2022-07-31T17:49:05.959Z,4.30
2022-07-31T17:51:33.608Z,5.82
2022-07-31T17:54:01.222Z,6.93
2022-07-31T17:56:28.917Z,5.20
2022-07-31T17:59:03.769Z,4.40
2022-07-31T18:01:33.629Z,6.45
2022-07-31T18:04:03.894Z,5.00
2022-07-31T18:06:31.279Z,5.07
2022-07-31T18:08:59.173Z,5.57
2022-07-31T18:11:26.564Z,5.20
2022-07-31T18:13:55.211Z,6.88
2022-07-31T18:16:23.893Z,6.00
2022-07-31T18:18:54.467Z,5.65
2022-07-31T18:21:22.060Z,7.00
2022-07-31T18:23:49.411Z,6.82
2022-07-31T18:26:17.129Z,7.57
2022-07-31T18:28:44.535Z,7.50
2022-07-31T18:31:30.708Z,7.65
2022-07-31T18:33:59.206Z,8.50
2022-07-31T18:36:27.168Z,9.05
2022-07-31T18:38:54.596Z,9.48
2022-07-31T18:41:21.568Z,9.15
2022-07-31T18:43:48.487Z,9.85
2022-07-31T18:46:15.666Z,9.77
2022-07-31T18:48:42.675Z,10.70
2022-07-31T18:51:09.789Z,17.77
2022-07-31T18:53:36.722Z,11.50
2022-07-31T18:56:03.906Z,11.05
2022-07-31T18:58:31.329Z,10.55
2022-07-31T19:00:58.491Z,10.48
2022-07-31T19:03:26.538Z,10.77
2022-07-31T19:05:54.602Z,10.35
2022-07-31T19:08:21.690Z,13.05
2022-07-31T19:10:49.662Z,13.60
2022-07-31T19:13:19.180Z,9.88
2022-07-31T19:15:47.708Z,10.77
2022-07-31T19:18:15.482Z,11.35
2022-07-31T19:21:00.294Z,9.90
2022-07-31T19:23:32.989Z,10.40
2022-07-31T19:26:03.492Z,9.07
2022-07-31T19:28:32.494Z,8.95
2022-07-31T19:31:00.513Z,7.78
2022-07-31T19:33:27.758Z,10.85
2022-07-31T19:36:00.938Z,9.25
2022-07-31T19:38:30.240Z,7.25
2022-07-31T19:40:57.299Z,7.63
2022-07-31T19:43:24.455Z,8.18
2022-07-31T19:46:09.272Z,8.25
2022-07-31T19:48:42.404Z,7.55
2022-07-31T19:51:10.771Z,7.78
2022-07-31T19:53:38.305Z,7.43
2022-07-31T19:56:06.378Z,7.20
2022-07-31T19:58:38.141Z,7.82
2022-07-31T20:01:05.785Z,7.68
2022-07-31T20:03:33.099Z,27.48
2022-07-31T20:06:00.668Z,8.20
2022-07-31T20:08:32.796Z,7.55
2022-07-31T20:11:03.460Z,7.25
2022-07-31T20:13:34.253Z,7.03
2022-07-31T20:16:01.627Z,7.35
2022-07-31T20:18:29.857Z,9.75
2022-07-31T20:21:06.968Z,10.32
2022-07-31T20:23:37.470Z,7.20
2022-07-31T20:26:08.909Z,8.57
2022-07-31T20:28:36.398Z,6.88
2022-07-31T20:31:03.436Z,14.10
2022-07-31T20:33:30.782Z,7.15
2022-07-31T20:35:57.750Z,7.70
2022-07-31T20:38:25.334Z,6.45
2022-07-31T20:40:55.379Z,6.93
2022-07-31T20:43:28.138Z,6.55
2022-07-31T20:45:57.704Z,6.63
2022-07-31T20:48:31.373Z,7.18
2022-07-31T20:51:03.382Z,6.82
2022-07-31T20:53:31.206Z,7.80
2022-07-31T20:55:59.010Z,6.90
2022-07-31T20:58:26.723Z,7.00
2022-07-31T21:00:54.667Z,6.80
2022-07-31T21:03:22.108Z,7.72
2022-07-31T21:05:49.892Z,6.63
2022-07-31T21:08:17.377Z,6.80
2022-07-31T21:10:44.794Z,6.53
2022-07-31T21:13:12.377Z,7.32
2022-07-31T21:15:44.025Z,7.30
2022-07-31T21:18:17.146Z,7.68
2022-07-31T21:20:52.113Z,7.07
2022-07-31T21:23:20.956Z,7.28
2022-07-31T21:25:48.227Z,7.55
2022-07-31T21:28:15.553Z,7.03
2022-07-31T21:30:42.969Z,6.85
2022-07-31T21:33:10.852Z,7.18
2022-07-31T21:35:40.149Z,7.00
2022-07-31T21:38:11.783Z,7.10
2022-07-31T21:40:40.156Z,7.85
2022-07-31T21:43:08.034Z,6.95
2022-07-31T21:45:50.716Z,7.20
2022-07-31T21:48:25.255Z,7.00
2022-07-31T21:50:53.447Z,7.03
2022-07-31T21:53:20.917Z,7.05
2022-07-31T21:55:47.963Z,7.35
2022-07-31T21:58:17.514Z,7.75
2022-07-31T22:00:44.930Z,8.07
2022-07-31T22:03:12.803Z,8.15
2022-07-31T22:05:58.630Z,7.35
2022-07-31T22:08:25.682Z,7.88
2022-07-31T22:10:53.784Z,8.57
2022-07-31T22:13:21.636Z,7.18
2022-07-31T22:15:55.320Z,7.85
2022-07-31T22:18:30.399Z,7.82
2022-07-31T22:21:02.852Z,8.93
2022-07-31T22:23:30.861Z,9.95
2022-07-31T22:25:58.547Z,10.40
2022-07-31T22:28:26.873Z,8.65
2022-07-31T22:30:55.268Z,8.60
2022-07-31T22:33:23.304Z,9.27
2022-07-31T22:35:59.572Z,9.90
2022-07-31T22:38:30.763Z,9.43
2022-07-31T22:41:02.946Z,9.35
2022-07-31T22:44:12.521Z,10.00
2022-07-31T22:46:18.455Z,9.55
2022-07-31T22:48:47.376Z,10.75
2022-07-31T22:51:15.429Z,9.48
2022-07-31T22:53:44.483Z,8.77
2022-07-31T22:56:17.713Z,9.00
2022-07-31T22:58:44.709Z,10.15
2022-07-31T23:01:11.666Z,9.30
2022-07-31T23:03:39.207Z,8.50
2022-07-31T23:06:30.782Z,9.85
2022-07-31T23:08:55.096Z,9.65
2022-07-31T23:11:23.221Z,9.40
2022-07-31T23:13:51.329Z,8.35
2022-07-31T23:16:18.433Z,8.70
2022-07-31T23:18:45.942Z,8.15
2022-07-31T23:21:12.904Z,8.80
2022-07-31T23:23:40.583Z,9.20
2022-07-31T23:26:15.574Z,8.50
2022-07-31T23:28:43.692Z,8.13
2022-07-31T23:31:10.658Z,8.73
2022-07-31T23:33:37.547Z,9.00
2022-07-31T23:36:04.790Z,8.15
2022-07-31T23:38:31.805Z,8.23
2022-07-31T23:40:58.946Z,8.88
2022-07-31T23:43:26.083Z,8.57
2022-07-31T23:45:53.026Z,9.68
2022-07-31T23:48:20.675Z,12.18
2022-07-31T23:50:47.815Z,8.65
2022-07-31T23:53:15.368Z,8.98
2022-07-31T23:55:43.085Z,8.75
2022-07-31T23:58:11.185Z,8.13
